createdAt,value
2022-11-10T00:01:50.649Z,19.23
2022-11-10T00:04:20.561Z,15.40
2022-11-10T00:06:48.707Z,25.75
2022-11-10T00:09:18.798Z,15.57
2022-11-10T00:11:49.574Z,23.70
2022-11-10T00:14:34.917Z,19.37
2022-11-10T00:17:07.870Z,18.53
2022-11-10T00:19:35.869Z,20.33
2022-11-10T00:22:04.115Z,22.73
2022-11-10T00:24:33.858Z,15.37
2022-11-10T00:27:03.761Z,18.45
2022-11-10T00:29:31.566Z,24.92
2022-11-10T00:32:01.544Z,22.20
2022-11-10T00:34:32.595Z,17.38
2022-11-10T00:37:00.371Z,23.80
2022-11-10T00:39:30.137Z,17.80
2022-11-10T00:42:00.137Z,15.80
2022-11-10T00:44:27.992Z,27.73
2022-11-10T00:46:57.736Z,22.07
2022-11-10T00:49:27.853Z,25.40
2022-11-10T00:51:57.054Z,20.50
2022-11-10T00:54:27.758Z,27.40
2022-11-10T00:56:57.723Z,20.20
2022-11-10T00:59:25.582Z,23.13
2022-11-10T01:01:55.644Z,16.30
2022-11-10T01:04:25.589Z,17.17
2022-11-10T01:06:53.452Z,17.88
2022-11-10T01:09:24.522Z,14.40
2022-11-10T01:11:54.595Z,16.47
2022-11-10T01:14:22.386Z,19.27
2022-11-10T01:16:52.084Z,16.70
2022-11-10T01:19:22.057Z,21.23
2022-11-10T01:21:51.540Z,15.63
2022-11-10T01:24:24.509Z,15.83
2022-11-10T01:26:54.498Z,21.33
2022-11-10T01:29:22.422Z,18.85
2022-11-10T01:31:52.149Z,17.67
2022-11-10T01:34:22.123Z,23.52
2022-11-10T01:36:49.965Z,21.70
2022-11-10T01:39:19.644Z,29.73
2022-11-10T01:41:50.726Z,22.60
2022-11-10T01:44:22.118Z,17.10
2022-11-10T01:46:52.231Z,18.93
2022-11-10T01:49:25.727Z,24.75
2022-11-10T01:52:00.089Z,25.77
2022-11-10T01:54:33.580Z,20.33
2022-11-10T01:57:08.023Z,22.20
2022-11-10T01:59:42.938Z,20.97
2022-11-10T02:02:21.814Z,19.67
2022-11-10T02:04:54.726Z,22.43
2022-11-10T02:07:25.230Z,24.13
2022-11-10T02:12:38.687Z,23.60
2022-11-10T02:15:08.943Z,20.53
2022-11-10T02:17:37.488Z,18.60
2022-11-10T02:20:13.011Z,27.83
2022-11-10T02:22:42.329Z,27.37
2022-11-10T02:25:10.530Z,21.73
2022-11-10T02:27:42.516Z,19.27
2022-11-10T02:30:11.187Z,24.07
2022-11-10T02:32:39.028Z,21.47
2022-11-10T02:35:11.653Z,19.07
2022-11-10T02:37:42.952Z,18.73
2022-11-10T02:40:11.255Z,13.43
2022-11-10T02:42:41.001Z,20.07
2022-11-10T02:45:09.417Z,15.18
2022-11-10T02:47:37.203Z,18.40
2022-11-10T02:50:07.202Z,18.67
2022-11-10T02:52:37.958Z,22.13
2022-11-10T02:55:08.183Z,17.27
2022-11-10T02:57:37.951Z,21.05
2022-11-10T03:00:09.483Z,13.93
2022-11-10T03:02:37.294Z,25.47
2022-11-10T03:05:07.502Z,19.50
2022-11-10T03:07:37.564Z,16.77
2022-11-10T03:10:08.115Z,19.60
2022-11-10T03:15:08.301Z,19.83
2022-11-10T03:17:36.094Z,17.20
2022-11-10T03:20:07.178Z,19.07
2022-11-10T03:22:36.992Z,23.10
2022-11-10T03:25:05.277Z,20.88
2022-11-10T03:27:34.591Z,19.10
2022-11-10T03:30:05.254Z,24.37
2022-11-10T03:32:33.280Z,20.20
2022-11-10T03:35:03.217Z,17.40
2022-11-10T03:37:33.122Z,21.98
2022-11-10T03:40:00.942Z,22.95
2022-11-10T03:42:30.731Z,20.57
2022-11-10T03:45:02.125Z,17.05
2022-11-10T03:47:29.940Z,18.60
2022-11-10T03:49:59.712Z,18.73
2022-11-10T03:52:29.728Z,18.02
2022-11-10T03:55:02.964Z,11.30
2022-11-10T03:57:35.765Z,15.20
2022-11-10T04:00:06.141Z,13.73
2022-11-10T04:02:36.352Z,13.75
2022-11-10T04:05:24.492Z,17.73
2022-11-10T04:08:15.162Z,18.97
2022-11-10T04:10:48.349Z,20.13
2022-11-10T04:13:35.517Z,17.55
2022-11-10T04:16:06.629Z,19.90
2022-11-10T04:18:36.604Z,14.97
2022-11-10T04:21:04.679Z,17.33
2022-11-10T04:23:38.027Z,23.50
2022-11-10T04:26:26.937Z,15.83
2022-11-10T04:28:58.596Z,19.10
2022-11-10T04:31:31.309Z,19.73
2022-11-10T04:33:59.756Z,18.17
2022-11-10T04:36:29.013Z,22.10
2022-11-10T04:38:59.047Z,22.43
2022-11-10T04:41:30.258Z,24.73
2022-11-10T04:43:58.574Z,19.03
2022-11-10T04:46:33.989Z,14.27
2022-11-10T04:49:02.502Z,14.13
2022-11-10T04:51:36.722Z,14.60
2022-11-10T04:54:05.650Z,15.37
2022-11-10T04:56:35.851Z,17.37
2022-11-10T04:59:05.616Z,15.13
2022-11-10T05:01:35.060Z,24.42
2022-11-10T05:04:05.684Z,12.80
2022-11-10T05:06:33.628Z,18.80
2022-11-10T05:09:01.549Z,13.07
2022-11-10T05:11:31.590Z,14.93
2022-11-10T05:14:01.332Z,17.67
2022-11-10T05:16:29.132Z,17.48
2022-11-10T05:19:00.343Z,14.70
2022-11-10T05:21:29.965Z,20.87
2022-11-10T05:23:57.741Z,16.77
2022-11-10T05:26:27.658Z,16.80
2022-11-10T05:28:55.634Z,18.42
2022-11-10T05:31:23.434Z,14.60
2022-11-10T05:33:53.462Z,17.20
2022-11-10T05:36:22.675Z,19.15
2022-11-10T05:38:50.450Z,19.57
2022-11-10T05:41:20.674Z,12.00
2022-11-10T05:43:52.842Z,13.93
2022-11-10T05:46:20.639Z,15.17
2022-11-10T05:48:48.599Z,15.93
2022-11-10T05:51:20.378Z,15.40
2022-11-10T05:53:49.617Z,16.13
2022-11-10T05:56:17.471Z,13.07
2022-11-10T05:58:49.430Z,19.33
2022-11-10T06:01:17.224Z,19.37
2022-11-10T06:03:45.086Z,14.00
2022-11-10T06:06:16.958Z,19.13
2022-11-10T06:08:44.760Z,10.40
2022-11-10T06:11:14.099Z,16.27
2022-11-10T06:13:46.302Z,16.40
2022-11-10T06:16:14.030Z,15.27
2022-11-10T06:18:41.790Z,14.00
2022-11-10T06:21:13.713Z,15.37
2022-11-10T06:23:41.464Z,10.60
2022-11-10T06:26:09.263Z,20.67
2022-11-10T06:28:42.201Z,13.23
2022-11-10T06:31:10.145Z,17.97
2022-11-10T06:33:37.918Z,16.00
2022-11-10T06:36:10.339Z,14.90
2022-11-10T06:38:38.149Z,15.07
2022-11-10T06:41:06.193Z,16.27
2022-11-10T06:43:38.056Z,16.13
2022-11-10T06:46:09.308Z,12.77
2022-11-10T06:48:37.106Z,15.70
2022-11-10T06:51:07.388Z,16.87
2022-11-10T06:53:37.238Z,13.60
2022-11-10T06:56:05.444Z,13.73
2022-11-10T06:58:35.127Z,16.20
2022-11-10T07:01:07.057Z,15.80
2022-11-10T07:03:41.357Z,13.77
2022-11-10T07:06:25.645Z,18.07
2022-11-10T07:08:53.424Z,15.90
2022-11-10T07:11:21.262Z,17.90
2022-11-10T07:13:51.148Z,16.90
2022-11-10T07:16:41.112Z,14.63
2022-11-10T07:19:10.493Z,20.17
2022-11-10T07:21:38.310Z,14.83
2022-11-10T07:24:06.733Z,12.87
2022-11-10T07:26:38.684Z,14.10
2022-11-10T07:29:06.514Z,16.80
2022-11-10T07:31:34.253Z,15.83
2022-11-10T07:34:06.190Z,17.50
2022-11-10T07:36:35.396Z,15.47
2022-11-10T07:39:03.174Z,17.17
2022-11-10T07:41:35.064Z,16.53
2022-11-10T07:44:03.060Z,16.33
2022-11-10T07:46:30.973Z,9.97
2022-11-10T07:48:58.915Z,15.43
2022-11-10T07:51:27.029Z,18.07
2022-11-10T07:53:56.219Z,12.77
2022-11-10T07:56:27.966Z,17.37
2022-11-10T07:58:55.721Z,15.40
2022-11-10T08:01:23.646Z,14.70
2022-11-10T08:03:53.413Z,15.53
2022-11-10T08:06:21.197Z,14.13
2022-11-10T08:08:51.078Z,16.70
2022-11-10T08:11:22.178Z,16.65
2022-11-10T08:13:50.035Z,15.87
2022-11-10T08:16:20.075Z,13.67
2022-11-10T08:18:50.024Z,17.30
2022-11-10T08:21:17.792Z,15.85
2022-11-10T08:23:47.751Z,13.83
2022-11-10T08:26:19.912Z,13.38
2022-11-10T08:28:51.327Z,18.23
2022-11-10T08:31:19.072Z,14.80
2022-11-10T08:33:48.836Z,15.50
2022-11-10T08:36:18.781Z,12.25
2022-11-10T08:38:46.753Z,16.60
2022-11-10T08:41:16.298Z,14.97
2022-11-10T08:43:46.195Z,16.23
2022-11-10T08:46:15.387Z,14.02
2022-11-10T08:48:43.269Z,14.47
2022-11-10T08:51:13.223Z,23.10
2022-11-10T08:53:40.984Z,14.05
2022-11-10T08:56:09.372Z,18.97
2022-11-10T08:58:47.294Z,18.93
2022-11-10T09:01:19.663Z,14.57
2022-11-10T09:03:47.549Z,12.80
2022-11-10T09:06:15.360Z,17.77
2022-11-10T09:08:43.294Z,15.93
2022-11-10T09:11:11.163Z,14.93
2022-11-10T09:13:38.954Z,11.77
2022-11-10T09:16:07.605Z,20.20
2022-11-10T09:18:36.904Z,16.53
2022-11-10T09:21:06.776Z,12.33
2022-11-10T09:23:36.408Z,16.77
2022-11-10T09:26:07.240Z,9.80
2022-11-10T09:28:35.003Z,14.20
2022-11-10T09:31:04.922Z,11.93
2022-11-10T09:33:38.251Z,13.88
2022-11-10T09:36:07.119Z,15.43
2022-11-10T09:38:35.276Z,16.77
2022-11-10T09:41:05.639Z,18.33
2022-11-10T09:43:41.515Z,10.00
2022-11-10T09:46:15.475Z,13.67
2022-11-10T09:48:53.974Z,9.73
2022-11-10T09:51:26.437Z,16.80
2022-11-10T09:53:58.203Z,10.30
2022-11-10T09:56:32.773Z,10.03
2022-11-10T09:59:01.773Z,9.40
2022-11-10T10:01:39.770Z,12.17
2022-11-10T10:04:22.560Z,12.53
2022-11-10T10:07:10.668Z,15.10
2022-11-10T10:09:48.817Z,10.40
2022-11-10T10:12:26.752Z,12.43
2022-11-10T10:15:16.547Z,11.77
2022-11-10T10:17:54.083Z,8.40
2022-11-10T10:20:36.385Z,9.53
2022-11-10T10:23:15.678Z,13.63
2022-11-10T10:25:49.671Z,11.77
2022-11-10T10:28:29.800Z,15.70
2022-11-10T10:31:10.254Z,13.63
2022-11-10T10:36:18.134Z,12.93
2022-11-10T10:38:49.055Z,10.98
2022-11-10T10:41:26.033Z,14.67
2022-11-10T10:43:57.396Z,9.13
2022-11-10T10:46:35.496Z,16.70
2022-11-10T10:49:31.807Z,12.60
2022-11-10T10:52:15.682Z,12.63
2022-11-10T10:54:43.947Z,11.40
2022-11-10T10:57:24.755Z,16.43
2022-11-10T10:59:53.244Z,14.20
2022-11-10T11:02:28.216Z,12.67
2022-11-10T11:05:15.479Z,13.77
2022-11-10T11:07:56.201Z,15.03
2022-11-10T11:10:25.715Z,10.87
2022-11-10T11:12:53.730Z,11.90
2022-11-10T11:15:28.411Z,12.70
2022-11-10T11:17:59.851Z,11.27
2022-11-10T11:20:39.741Z,14.00
2022-11-10T11:23:19.541Z,12.43
2022-11-10T11:25:54.434Z,10.85
2022-11-10T11:28:32.076Z,11.00
2022-11-10T11:31:13.367Z,14.20
2022-11-10T11:33:48.541Z,10.47
2022-11-10T11:36:28.088Z,8.83
2022-11-10T11:39:04.522Z,9.67
2022-11-10T11:41:41.943Z,14.77
2022-11-10T11:44:38.752Z,13.13
2022-11-10T11:47:22.003Z,10.57
2022-11-10T11:50:09.664Z,10.50
2022-11-10T11:52:45.574Z,14.03
2022-11-10T11:55:23.605Z,11.77
2022-11-10T11:58:14.479Z,11.23
2022-11-10T12:00:51.256Z,9.90
2022-11-10T12:03:32.602Z,14.27
2022-11-10T12:06:17.165Z,10.23
2022-11-10T12:08:56.242Z,10.03
2022-11-10T12:11:36.675Z,12.90
2022-11-10T12:14:11.746Z,13.77
2022-11-10T12:16:46.384Z,10.77
2022-11-10T12:19:24.088Z,6.93
2022-11-10T12:22:00.862Z,8.90
2022-11-10T12:24:46.172Z,11.40
2022-11-10T12:27:21.956Z,12.00
2022-11-10T12:29:55.602Z,8.23
2022-11-10T12:32:29.383Z,10.77
2022-11-10T12:35:01.508Z,8.77
2022-11-10T12:37:33.969Z,10.20
2022-11-10T12:40:06.576Z,11.93
2022-11-10T12:42:38.969Z,11.70
2022-11-10T12:45:09.236Z,12.43
2022-11-10T12:47:42.520Z,10.70
2022-11-10T12:50:42.001Z,12.73
2022-11-10T12:53:17.355Z,12.47
2022-11-10T12:55:51.121Z,9.23
2022-11-10T12:58:23.011Z,10.60
2022-11-10T13:01:01.491Z,13.17
2022-11-10T13:03:34.198Z,9.87
2022-11-10T13:06:03.506Z,9.07
2022-11-10T13:08:37.200Z,9.40
2022-11-10T13:11:10.499Z,12.70
2022-11-10T13:13:46.598Z,12.13
2022-11-10T13:16:52.180Z,9.47
2022-11-10T13:19:54.063Z,9.40
2022-11-10T13:22:42.615Z,11.37
2022-11-10T13:26:02.289Z,9.13
2022-11-10T13:29:03.825Z,10.83
2022-11-10T13:31:56.266Z,10.43
2022-11-10T13:34:34.607Z,16.73
2022-11-10T13:37:43.675Z,15.63
2022-11-10T13:40:37.681Z,12.27
2022-11-10T13:43:23.327Z,12.60
2022-11-10T13:46:04.414Z,14.87
2022-11-10T13:48:47.745Z,14.37
2022-11-10T13:51:26.514Z,13.93
2022-11-10T13:54:09.435Z,15.50
2022-11-10T13:56:58.397Z,12.80
2022-11-10T13:59:32.489Z,14.33
2022-11-10T14:02:35.261Z,15.63
2022-11-10T14:05:05.828Z,9.93
2022-11-10T14:07:42.426Z,12.60
2022-11-10T14:10:18.022Z,16.47
2022-11-10T14:12:50.984Z,14.97
2022-11-10T14:15:21.767Z,13.70
2022-11-10T14:17:53.020Z,18.70
2022-11-10T14:20:27.003Z,16.17
2022-11-10T14:22:59.332Z,14.97
2022-11-10T14:25:34.922Z,14.40
2022-11-10T14:28:05.052Z,16.30
2022-11-10T14:30:35.074Z,16.48
2022-11-10T14:33:06.360Z,23.23
2022-11-10T14:35:49.084Z,13.07
2022-11-10T14:38:23.447Z,15.27
2022-11-10T14:40:52.531Z,14.30
2022-11-10T14:43:28.335Z,15.77
2022-11-10T14:45:58.669Z,13.67
2022-11-10T14:48:29.494Z,16.17
2022-11-10T14:51:06.354Z,16.23
2022-11-10T14:53:38.121Z,17.57
2022-11-10T14:56:14.613Z,20.03
2022-11-10T14:58:44.512Z,19.30
2022-11-10T15:01:25.718Z,14.90
2022-11-10T15:03:56.417Z,13.57
2022-11-10T15:06:26.493Z,10.93
2022-11-10T15:08:55.333Z,18.35
2022-11-10T15:11:40.878Z,16.70
2022-11-10T15:14:32.479Z,19.10
2022-11-10T15:17:04.088Z,18.03
2022-11-10T15:19:33.605Z,19.27
2022-11-10T15:22:16.634Z,18.07
2022-11-10T15:24:45.665Z,19.83
2022-11-10T15:27:25.079Z,23.10
2022-11-10T15:29:54.544Z,21.50
2022-11-10T15:32:24.521Z,19.80
2022-11-10T15:34:53.182Z,16.60
2022-11-10T15:37:30.471Z,53.03
2022-11-10T15:40:33.900Z,26.83
2022-11-10T15:43:14.622Z,22.80
2022-11-10T15:45:43.808Z,21.83
2022-11-10T15:48:15.870Z,24.50
2022-11-10T15:50:47.498Z,24.50
2022-11-10T15:53:18.859Z,24.77
2022-11-10T15:55:46.849Z,21.50
2022-11-10T15:58:16.718Z,17.67
2022-11-10T16:00:44.673Z,20.80
2022-11-10T16:03:13.518Z,21.67
2022-11-10T16:05:43.889Z,21.17
2022-11-10T16:08:19.548Z,23.73
2022-11-10T16:10:51.182Z,18.13
2022-11-10T16:13:25.614Z,24.30
2022-11-10T16:15:54.808Z,22.57
2022-11-10T16:18:25.267Z,20.10
2022-11-10T16:20:53.829Z,18.60
2022-11-10T16:23:28.105Z,21.90
2022-11-10T16:25:58.135Z,24.77
2022-11-10T16:28:29.289Z,21.38
2022-11-10T16:30:58.994Z,20.80
2022-11-10T16:33:27.932Z,19.73
2022-11-10T16:35:56.921Z,19.63
2022-11-10T16:38:28.607Z,26.67
2022-11-10T16:41:00.694Z,20.13
2022-11-10T16:43:29.187Z,21.47
2022-11-10T16:46:00.480Z,20.20
2022-11-10T16:48:34.259Z,23.57
2022-11-10T16:51:05.436Z,17.83
2022-11-10T16:53:40.186Z,21.57
2022-11-10T16:56:08.299Z,21.70
2022-11-10T16:58:38.151Z,22.37
2022-11-10T17:01:06.441Z,28.95
2022-11-10T17:03:39.453Z,22.70
2022-11-10T17:06:13.579Z,21.40
2022-11-10T17:08:45.580Z,22.40
2022-11-10T17:11:16.413Z,22.77
2022-11-10T17:13:44.678Z,16.50
2022-11-10T17:16:22.890Z,20.20
2022-11-10T17:18:51.665Z,19.83
2022-11-10T17:21:22.574Z,16.90
2022-11-10T17:23:52.183Z,22.40
2022-11-10T17:26:21.896Z,27.17
2022-11-10T17:28:51.768Z,18.00
2022-11-10T17:31:21.889Z,16.83
2022-11-10T17:33:49.674Z,24.27
2022-11-10T17:36:22.079Z,22.97
2022-11-10T17:38:54.029Z,20.30
2022-11-10T17:41:22.234Z,17.60
2022-11-10T17:43:50.132Z,20.07
2022-11-10T17:46:18.140Z,21.07
2022-11-10T17:48:48.106Z,25.23
2022-11-10T17:51:22.093Z,22.65
2022-11-10T17:53:53.469Z,22.67
2022-11-10T17:56:21.254Z,20.47
2022-11-10T17:58:49.221Z,21.90
2022-11-10T18:01:21.628Z,19.67
2022-11-10T18:03:51.954Z,20.77
2022-11-10T18:06:21.131Z,26.05
2022-11-10T18:08:49.208Z,19.60
2022-11-10T18:11:21.491Z,17.43
2022-11-10T18:13:51.478Z,26.23
2022-11-10T18:16:19.256Z,19.52
2022-11-10T18:18:48.952Z,30.87
2022-11-10T18:21:16.905Z,20.48
2022-11-10T18:23:45.337Z,22.53
2022-11-10T18:26:14.965Z,20.27
2022-11-10T18:28:48.608Z,23.25
2022-11-10T18:31:19.542Z,25.10
2022-11-10T18:33:49.448Z,17.40
2022-11-10T18:36:17.343Z,20.40
2022-11-10T18:38:47.230Z,19.43
2022-11-10T18:41:32.701Z,23.02
2022-11-10T18:44:08.609Z,13.03
2022-11-10T18:46:36.583Z,25.27
2022-11-10T18:49:04.446Z,18.53
2022-11-10T18:51:34.549Z,22.27
2022-11-10T18:54:02.613Z,22.10
2022-11-10T18:56:30.399Z,21.87
2022-11-10T18:59:00.350Z,21.70
2022-11-10T19:01:29.842Z,17.95
2022-11-10T19:03:58.269Z,14.33
2022-11-10T19:06:28.268Z,16.17
2022-11-10T19:08:57.268Z,17.73
2022-11-10T19:11:27.141Z,18.97
2022-11-10T19:13:57.198Z,21.15
2022-11-10T19:16:25.450Z,17.55
2022-11-10T19:18:56.677Z,23.27
2022-11-10T19:21:29.796Z,17.53
2022-11-10T19:23:59.904Z,18.50
2022-11-10T19:26:30.440Z,15.60
2022-11-10T19:28:58.687Z,15.03
2022-11-10T19:31:27.378Z,17.57
2022-11-10T19:33:59.353Z,20.37
2022-11-10T19:36:31.458Z,14.57
2022-11-10T19:39:01.511Z,20.20
2022-11-10T19:41:34.771Z,19.73
2022-11-10T19:44:02.633Z,16.03
2022-11-10T19:46:38.630Z,17.87
2022-11-10T19:49:08.277Z,14.67
2022-11-10T19:51:36.467Z,16.80
2022-11-10T19:54:06.176Z,15.13
2022-11-10T19:56:35.718Z,19.58
2022-11-10T19:59:10.052Z,15.38
2022-11-10T20:01:38.223Z,14.80
2022-11-10T20:04:12.679Z,21.53
2022-11-10T20:06:40.722Z,17.23
2022-11-10T20:09:08.600Z,12.27
2022-11-10T20:11:40.910Z,11.77
2022-11-10T20:14:08.836Z,14.67
2022-11-10T20:16:38.439Z,16.50
2022-11-10T20:19:12.738Z,12.13
2022-11-10T20:21:40.566Z,9.17
2022-11-10T20:24:08.615Z,17.83
2022-11-10T20:26:40.717Z,16.57
2022-11-10T20:29:08.579Z,10.80
2022-11-10T20:31:38.585Z,18.57
2022-11-10T20:34:10.261Z,13.80
2022-11-10T20:36:38.158Z,17.00
2022-11-10T20:39:06.045Z,15.97
2022-11-10T20:41:36.171Z,14.87
2022-11-10T20:44:03.972Z,16.65
2022-11-10T20:49:25.545Z,19.87
2022-11-10T20:51:53.483Z,17.07
2022-11-10T20:54:21.396Z,18.67
2022-11-10T20:56:50.216Z,15.23
2022-11-10T20:59:18.561Z,16.43
2022-11-10T21:01:54.647Z,24.63
2022-11-10T21:04:24.724Z,18.50
2022-11-10T21:06:52.562Z,11.70
2022-11-10T21:09:36.201Z,10.23
2022-11-10T21:12:21.632Z,17.20
2022-11-10T21:14:51.897Z,12.37
2022-11-10T21:17:22.936Z,16.48
2022-11-10T21:19:57.136Z,14.10
2022-11-10T21:22:24.970Z,15.33
2022-11-10T21:24:52.771Z,12.37
2022-11-10T21:27:26.851Z,16.17
2022-11-10T21:29:55.803Z,13.23
2022-11-10T21:32:23.868Z,12.80
2022-11-10T21:34:56.771Z,15.43
2022-11-10T21:37:25.778Z,12.67
2022-11-10T21:39:53.545Z,11.83
2022-11-10T21:42:23.324Z,10.20
2022-11-10T21:44:51.112Z,13.18
2022-11-10T21:47:18.967Z,13.10
2022-11-10T21:49:48.728Z,11.30
2022-11-10T21:52:17.845Z,11.63
2022-11-10T21:54:45.643Z,15.40
2022-11-10T21:57:14.155Z,13.47
2022-11-10T21:59:41.943Z,10.43
2022-11-10T22:02:10.746Z,10.40
2022-11-10T22:04:38.855Z,10.10
2022-11-10T22:07:20.513Z,9.60
2022-11-10T22:10:09.613Z,12.60
2022-11-10T22:12:55.203Z,8.63
2022-11-10T22:15:40.843Z,13.93
2022-11-10T22:18:33.056Z,10.30
2022-11-10T22:21:01.228Z,9.87
2022-11-10T22:23:46.668Z,15.17
2022-11-10T22:26:17.855Z,9.20
2022-11-10T22:28:45.967Z,13.90
2022-11-10T22:31:16.080Z,14.17
2022-11-10T22:33:46.034Z,6.25
2022-11-10T22:36:15.509Z,7.75
2022-11-10T22:38:45.400Z,11.30
2022-11-10T22:41:37.294Z,8.73
2022-11-10T22:44:06.448Z,6.30
2022-11-10T22:46:35.964Z,6.57
2022-11-10T22:49:06.150Z,12.57
2022-11-10T22:51:36.338Z,7.45
2022-11-10T22:54:09.958Z,8.27
2022-11-10T22:56:41.160Z,12.03
2022-11-10T22:59:12.058Z,10.20
2022-11-10T23:01:40.769Z,9.20
2022-11-10T23:04:08.869Z,11.07
2022-11-10T23:06:39.095Z,12.60
2022-11-10T23:09:07.445Z,11.38
2022-11-10T23:11:37.428Z,8.60
2022-11-10T23:14:08.511Z,9.18
2022-11-10T23:16:36.369Z,6.60
2022-11-10T23:19:06.120Z,8.70
2022-11-10T23:21:36.202Z,7.32
2022-11-10T23:24:04.091Z,10.35
2022-11-10T23:26:36.156Z,9.40
2022-11-10T23:29:09.270Z,9.47
2022-11-10T23:31:37.107Z,8.13
2022-11-10T23:34:04.968Z,10.37
2022-11-10T23:36:34.941Z,10.43
2022-11-10T23:39:04.590Z,10.15
2022-11-10T23:41:32.381Z,8.55
2022-11-10T23:44:02.374Z,7.07
2022-11-10T23:46:33.437Z,10.25
2022-11-10T23:49:01.298Z,9.23
2022-11-10T23:51:31.369Z,6.17
2022-11-10T23:54:01.184Z,8.50
2022-11-10T23:56:28.968Z,10.57
2022-11-10T23:58:58.884Z,8.63
